Time;durP1;ratioP1;P1;durP2;ratioP2;P2;SDS_P1;SDS_P2;PMS_P1;PMS_P2;Temp;Humidity;BMP_temperature;BMP_pressure;BME280_temperature;BME280_humidity;BME280_pressure;Samples;Min_cycle;Max_cycle;Signal;HPM_P1;HPM_P2
2023/08/04 00:00:18;;;;;;;11.77;6.53;;;15.80;1.00;;;;;;5024643;28;20217;-84
2023/08/04 00:02:44;;;;;;;11.17;5.20;;;15.80;1.00;;;;;;5024927;28;20194;-84
2023/08/04 00:05:09;;;;;;;13.73;5.70;;;15.80;1.00;;;;;;5025909;28;20445;-83
2023/08/04 00:07:36;;;;;;;12.00;4.73;;;15.70;1.00;;;;;;5016247;28;20205;-84
2023/08/04 00:10:03;;;;;;;13.40;5.17;;;15.80;1.00;;;;;;5023379;28;20189;-84
2023/08/04 00:12:29;;;;;;;13.80;4.70;;;15.70;1.00;;;;;;5018635;28;20479;-83
2023/08/04 00:14:55;;;;;;;16.00;4.77;;;15.70;1.00;;;;;;5024577;28;20450;-84
2023/08/04 00:17:20;;;;;;;10.03;4.30;;;15.70;1.00;;;;;;5024473;28;20463;-83
2023/08/04 00:19:46;;;;;;;12.83;5.33;;;15.70;1.00;;;;;;5019961;28;20213;-83
2023/08/04 00:22:12;;;;;;;17.80;6.17;;;15.70;1.00;;;;;;5022835;28;20180;-84
2023/08/04 00:24:37;;;;;;;7.23;5.00;;;15.60;1.00;;;;;;5023458;28;20220;-84
2023/08/04 00:27:03;;;;;;;9.90;5.70;;;15.60;1.00;;;;;;5023700;28;20678;-83
2023/08/04 00:29:29;;;;;;;18.90;5.70;;;15.60;1.00;;;;;;5021421;28;20686;-84
2023/08/04 00:31:55;;;;;;;7.70;5.43;;;15.60;1.00;;;;;;5023934;28;20453;-83
2023/08/04 00:34:21;;;;;;;10.57;5.87;;;15.60;1.00;;;;;;5026552;28;20443;-84
2023/08/04 00:36:47;;;;;;;14.30;5.90;;;15.60;1.00;;;;;;5024139;28;20468;-84
2023/08/04 00:39:16;;;;;;;16.30;6.60;;;15.60;1.00;;;;;;5023067;28;20472;-83
2023/08/04 00:41:42;;;;;;;12.33;5.90;;;15.60;1.00;;;;;;5022061;28;20470;-84
2023/08/04 00:44:08;;;;;;;14.00;7.43;;;15.70;1.00;;;;;;5023230;28;21067;-83
2023/08/04 00:46:35;;;;;;;12.30;6.40;;;15.70;1.00;;;;;;5023884;28;20437;-83
2023/08/04 00:49:02;;;;;;;12.23;6.23;;;15.70;1.00;;;;;;5024608;28;20472;-83
2023/08/04 00:51:30;;;;;;;12.87;6.20;;;15.70;1.00;;;;;;5024166;28;20996;-84
2023/08/04 00:53:56;;;;;;;14.30;6.70;;;15.70;1.00;;;;;;5025957;28;21220;-83
2023/08/04 00:56:22;;;;;;;15.63;6.40;;;15.70;1.00;;;;;;5023884;28;20456;-83
2023/08/04 00:58:47;;;;;;;12.10;5.80;;;15.70;1.00;;;;;;5021352;28;20229;-84
2023/08/04 01:01:13;;;;;;;12.50;5.43;;;15.70;1.00;;;;;;5019065;28;20823;-84
2023/08/04 01:03:40;;;;;;;11.97;5.53;;;15.70;1.00;;;;;;5023988;28;20182;-84
2023/08/04 01:06:22;;;;;;;16.70;5.93;;;15.70;1.00;;;;;;5029013;28;20190;-83
2023/08/04 01:09:08;;;;;;;13.53;5.40;;;15.70;1.00;;;;;;5022617;28;20459;-83
2023/08/04 01:11:42;;;;;;;8.70;6.20;;;15.70;1.00;;;;;;5039097;28;20451;-83
2023/08/04 01:14:15;;;;;;;16.70;6.13;;;15.70;1.00;;;;;;5038741;28;20506;-84
2023/08/04 01:16:41;;;;;;;12.90;6.40;;;15.80;1.00;;;;;;5042921;28;21016;-83
2023/08/04 01:19:06;;;;;;;9.13;6.10;;;15.80;1.00;;;;;;5025454;28;20474;-84
2023/08/04 01:21:40;;;;;;;13.50;5.30;;;15.80;1.00;;;;;;5026422;28;20290;-83
2023/08/04 01:24:06;;;;;;;11.43;5.07;;;15.80;1.00;;;;;;5026586;28;20460;-83
2023/08/04 01:26:34;;;;;;;17.37;7.10;;;15.80;1.00;;;;;;5026065;28;20447;-84
2023/08/04 01:29:01;;;;;;;19.83;5.80;;;15.80;1.00;;;;;;5025599;28;20465;-84
2023/08/04 01:31:27;;;;;;;20.00;5.67;;;15.80;1.00;;;;;;5021676;28;20441;-84
2023/08/04 01:33:52;;;;;;;13.47;4.70;;;15.80;1.00;;;;;;5029786;28;20442;-82
2023/08/04 01:36:18;;;;;;;14.90;5.90;;;15.80;1.00;;;;;;5024418;28;20441;-84
2023/08/04 01:38:43;;;;;;;9.70;6.37;;;15.80;1.00;;;;;;5028770;28;20214;-83
2023/08/04 01:41:09;;;;;;;14.03;7.07;;;15.70;1.00;;;;;;5026507;28;20186;-84
2023/08/04 01:43:34;;;;;;;12.83;6.10;;;15.80;1.00;;;;;;5027103;28;20182;-83
2023/08/04 01:46:00;;;;;;;11.13;6.30;;;15.80;1.00;;;;;;5026121;28;20184;-83
2023/08/04 01:48:26;;;;;;;9.43;5.90;;;15.80;1.00;;;;;;5024916;28;20928;-84
2023/08/04 01:50:52;;;;;;;19.60;7.17;;;15.80;1.00;;;;;;5024723;28;20182;-83
2023/08/04 01:53:17;;;;;;;17.93;6.53;;;15.80;1.00;;;;;;5025498;28;20532;-83
2023/08/04 01:55:43;;;;;;;13.90;6.50;;;15.80;1.00;;;;;;5026794;28;20190;-84
2023/08/04 01:58:08;;;;;;;15.13;7.10;;;15.80;1.00;;;;;;5027191;28;20228;-84
2023/08/04 02:00:34;;;;;;;17.67;7.43;;;15.80;1.00;;;;;;5019609;28;20953;-83
2023/08/04 02:02:59;;;;;;;12.57;6.07;;;15.80;1.00;;;;;;5026721;28;20209;-84
2023/08/04 02:05:25;;;;;;;14.30;6.87;;;15.80;1.00;;;;;;5021798;28;20459;-83
2023/08/04 02:07:50;;;;;;;16.87;6.80;;;15.80;1.00;;;;;;5027822;28;20228;-83
2023/08/04 02:10:16;;;;;;;15.20;6.73;;;15.80;1.00;;;;;;5024301;28;20216;-84
2023/08/04 02:12:42;;;;;;;16.17;6.60;;;15.80;1.00;;;;;;5027079;28;20596;-83
2023/08/04 02:15:07;;;;;;;12.77;6.30;;;15.80;1.00;;;;;;5027297;28;20187;-83
2023/08/04 02:17:34;;;;;;;12.77;7.03;;;15.80;1.00;;;;;;5024107;28;20215;-83
2023/08/04 02:20:00;;;;;;;17.20;6.23;;;15.80;1.00;;;;;;5025301;28;20289;-83
2023/08/04 02:22:33;;;;;;;20.83;7.50;;;15.80;1.00;;;;;;5022073;28;20538;-84
2023/08/04 02:24:58;;;;;;;15.53;6.70;;;15.80;1.00;;;;;;5027201;28;20188;-83
2023/08/04 02:27:24;;;;;;;16.73;7.13;;;15.80;1.00;;;;;;5024374;28;20544;-83
2023/08/04 02:29:49;;;;;;;20.43;7.80;;;15.80;1.00;;;;;;5026922;28;20823;-83
2023/08/04 02:32:16;;;;;;;18.67;7.70;;;15.80;1.00;;;;;;5023451;28;20718;-84
2023/08/04 02:34:41;;;;;;;13.77;8.17;;;15.80;1.00;;;;;;5027524;28;20191;-84
2023/08/04 02:37:07;;;;;;;19.30;8.17;;;15.70;1.00;;;;;;5024972;28;20474;-83
2023/08/04 02:39:36;;;;;;;17.40;7.63;;;15.70;1.00;;;;;;5019894;28;20769;-84
2023/08/04 02:42:02;;;;;;;18.20;8.10;;;15.70;1.00;;;;;;5024855;28;20723;-84
2023/08/04 02:44:27;;;;;;;16.10;7.27;;;15.70;1.00;;;;;;5021708;28;20445;-83
2023/08/04 02:46:52;;;;;;;14.40;7.07;;;15.70;1.00;;;;;;5027006;28;20189;-83
2023/08/04 02:49:18;;;;;;;16.87;7.53;;;15.80;1.00;;;;;;5023765;28;20213;-84
2023/08/04 02:51:43;;;;;;;18.07;7.90;;;15.70;1.00;;;;;;5025062;28;20609;-83
2023/08/04 02:54:09;;;;;;;16.73;9.03;;;15.70;1.00;;;;;;5023703;28;20178;-83
2023/08/04 02:56:35;;;;;;;15.67;8.60;;;15.70;1.00;;;;;;5014910;28;20191;-83
2023/08/04 02:59:01;;;;;;;26.87;8.20;;;15.70;1.00;;;;;;5024672;28;20476;-84
2023/08/04 03:01:26;;;;;;;13.20;7.00;;;15.70;1.00;;;;;;5023549;28;20927;-83
2023/08/04 03:03:52;;;;;;;16.53;8.57;;;15.70;1.00;;;;;;5021463;28;20182;-84
2023/08/04 03:06:17;;;;;;;17.40;8.00;;;15.70;1.00;;;;;;5021589;28;20205;-84
2023/08/04 03:08:43;;;;;;;24.57;9.70;;;15.70;1.00;;;;;;5021064;28;20213;-84
2023/08/04 03:11:12;;;;;;;17.77;8.17;;;15.70;1.00;;;;;;5019877;28;20588;-84
2023/08/04 03:13:38;;;;;;;13.03;8.00;;;15.70;1.00;;;;;;5021238;28;20190;-83
2023/08/04 03:16:05;;;;;;;18.53;8.53;;;15.70;1.00;;;;;;5026663;28;21021;-84
2023/08/04 03:18:30;;;;;;;22.00;7.87;;;15.70;1.00;;;;;;5025577;28;20566;-83
2023/08/04 03:20:59;;;;;;;13.43;8.03;;;15.70;1.00;;;;;;5026420;28;20456;-83
2023/08/04 03:23:25;;;;;;;17.60;9.70;;;15.70;1.00;;;;;;5024033;28;20249;-83
2023/08/04 03:25:50;;;;;;;15.90;9.10;;;15.70;1.00;;;;;;5026460;28;20444;-83
2023/08/04 03:28:16;;;;;;;23.27;8.90;;;15.60;1.00;;;;;;5024750;28;20205;-83
2023/08/04 03:30:42;;;;;;;20.80;9.53;;;15.60;1.00;;;;;;5022173;28;20280;-83
2023/08/04 03:33:07;;;;;;;14.50;7.83;;;15.60;1.00;;;;;;5019553;28;20185;-84
2023/08/04 03:35:33;;;;;;;23.87;9.43;;;15.60;1.00;;;;;;5027797;28;20236;-84
2023/08/04 03:37:58;;;;;;;22.23;8.30;;;15.60;1.00;;;;;;5022386;28;20229;-84
2023/08/04 03:40:27;;;;;;;18.33;8.57;;;15.60;1.00;;;;;;5023363;28;20871;-83
2023/08/04 03:42:52;;;;;;;22.20;8.20;;;15.60;1.00;;;;;;5023471;28;20239;-83
2023/08/04 03:45:18;;;;;;;18.03;9.60;;;15.60;1.00;;;;;;5020393;28;20527;-84
2023/08/04 03:47:43;;;;;;;23.07;11.90;;;15.50;1.00;;;;;;5017764;28;20205;-84
2023/08/04 03:50:09;;;;;;;18.80;9.30;;;15.50;1.00;;;;;;5025456;28;20194;-84
2023/08/04 03:52:35;;;;;;;13.87;9.37;;;15.50;1.00;;;;;;5024001;28;20812;-83
2023/08/04 03:55:00;;;;;;;24.13;9.53;;;15.50;1.00;;;;;;5028857;28;20198;-83
2023/08/04 03:57:26;;;;;;;18.73;8.10;;;15.50;1.00;;;;;;5025510;28;20214;-84
2023/08/04 03:59:53;;;;;;;17.60;8.40;;;15.50;1.00;;;;;;5025114;28;20218;-84
2023/08/04 04:02:19;;;;;;;13.53;8.80;;;15.50;1.00;;;;;;5023546;28;20565;-84
2023/08/04 04:04:44;;;;;;;18.50;9.90;;;15.50;1.00;;;;;;5024048;28;20436;-84
2023/08/04 04:07:10;;;;;;;17.47;8.83;;;15.50;1.00;;;;;;5025527;28;20440;-82
2023/08/04 04:09:35;;;;;;;14.07;8.67;;;15.50;1.00;;;;;;5024597;28;20198;-84
2023/08/04 04:12:01;;;;;;;25.87;11.33;;;15.50;1.00;;;;;;5023594;28;20190;-84
2023/08/04 04:14:26;;;;;;;19.27;9.90;;;15.50;1.00;;;;;;5023251;28;20192;-84
2023/08/04 04:16:52;;;;;;;19.90;9.60;;;15.50;1.00;;;;;;5020426;28;20190;-84
2023/08/04 04:19:17;;;;;;;18.87;10.03;;;15.50;1.00;;;;;;5020067;28;20261;-84
2023/08/04 04:21:43;;;;;;;17.67;9.50;;;15.50;1.00;;;;;;5023380;28;20184;-84
2023/08/04 04:24:09;;;;;;;21.63;10.27;;;15.50;1.00;;;;;;5022122;28;20174;-84
2023/08/04 04:26:34;;;;;;;18.87;9.37;;;15.50;1.00;;;;;;5024551;28;20511;-84
2023/08/04 04:29:00;;;;;;;19.33;9.97;;;15.60;1.00;;;;;;5023234;28;20237;-84
2023/08/04 04:31:29;;;;;;;22.17;10.80;;;15.60;1.00;;;;;;5029699;28;20523;-84
2023/08/04 04:33:54;;;;;;;19.57;9.20;;;15.60;1.00;;;;;;5025287;28;20182;-85
2023/08/04 04:36:20;;;;;;;20.40;9.57;;;15.60;1.00;;;;;;5021468;28;20520;-83
2023/08/04 04:38:45;;;;;;;24.57;10.00;;;15.60;1.00;;;;;;5027525;28;20231;-84
2023/08/04 04:41:16;;;;;;;16.00;8.83;;;15.60;1.00;;;;;;5022232;28;20586;-83
2023/08/04 04:43:42;;;;;;;25.37;10.70;;;15.60;1.00;;;;;;5023779;28;20183;-84
2023/08/04 04:46:07;;;;;;;23.03;8.93;;;15.60;1.00;;;;;;5026857;28;20512;-84
2023/08/04 04:48:36;;;;;;;15.50;8.17;;;15.70;1.00;;;;;;5026311;28;20213;-83
2023/08/04 04:51:01;;;;;;;15.50;8.87;;;15.70;1.00;;;;;;5024654;28;20191;-83
2023/08/04 04:53:27;;;;;;;28.20;9.67;;;15.70;1.00;;;;;;5022506;28;20480;-84
2023/08/04 04:55:52;;;;;;;20.60;9.13;;;15.80;1.00;;;;;;5027097;28;20185;-85
2023/08/04 04:58:18;;;;;;;22.37;9.50;;;15.80;1.00;;;;;;5023924;28;20198;-83
2023/08/04 05:00:43;;;;;;;20.43;8.90;;;15.80;1.00;;;;;;5024268;28;20207;-84
2023/08/04 05:03:10;;;;;;;14.37;8.67;;;15.80;1.00;;;;;;5021602;28;20179;-83
2023/08/04 05:05:37;;;;;;;15.87;8.00;;;15.90;1.00;;;;;;5027238;28;20186;-84
2023/08/04 05:08:03;;;;;;;16.93;9.73;;;15.90;1.00;;;;;;5041839;28;20479;-84
2023/08/04 05:10:29;;;;;;;17.13;8.10;;;15.90;1.00;;;;;;5021345;28;20452;-84
2023/08/04 05:12:57;;;;;;;20.50;8.10;;;16.00;1.00;;;;;;5022588;28;20824;-83
2023/08/04 05:15:23;;;;;;;14.50;8.80;;;16.00;1.00;;;;;;5021877;28;20194;-84
2023/08/04 05:17:49;;;;;;;19.20;8.63;;;16.00;1.00;;;;;;5025111;28;20506;-84
2023/08/04 05:20:17;;;;;;;20.20;9.83;;;16.10;1.00;;;;;;5026995;28;20759;-83
2023/08/04 05:22:43;;;;;;;15.17;8.23;;;16.10;1.00;;;;;;5023930;28;20192;-83
2023/08/04 05:25:09;;;;;;;19.37;9.40;;;16.10;1.00;;;;;;5026720;28;20464;-84
2023/08/04 05:27:34;;;;;;;22.93;8.50;;;16.10;1.00;;;;;;5026550;28;20596;-84
2023/08/04 05:30:01;;;;;;;25.13;9.43;;;16.20;1.00;;;;;;5021030;28;20679;-84
2023/08/04 05:32:27;;;;;;;17.03;8.60;;;16.20;1.00;;;;;;5023766;28;20215;-83
2023/08/04 05:34:52;;;;;;;20.73;8.60;;;16.20;1.00;;;;;;5025864;28;20449;-83
2023/08/04 05:37:18;;;;;;;22.47;9.53;;;16.20;1.00;;;;;;5027766;28;20464;-84
2023/08/04 05:39:43;;;;;;;19.47;8.73;;;16.20;1.00;;;;;;5025752;28;20302;-84
2023/08/04 05:42:09;;;;;;;20.70;9.10;;;16.20;1.00;;;;;;5024399;28;20194;-84
2023/08/04 05:44:34;;;;;;;14.80;9.63;;;16.20;1.00;;;;;;5026654;28;20198;-83
2023/08/04 05:47:00;;;;;;;16.33;9.23;;;16.30;1.00;;;;;;5022866;28;20215;-84
2023/08/04 05:49:25;;;;;;;16.63;7.87;;;16.30;1.00;;;;;;5027760;28;20178;-84
2023/08/04 05:51:51;;;;;;;18.83;9.53;;;16.30;1.00;;;;;;5021449;28;20213;-84
2023/08/04 05:54:16;;;;;;;19.17;9.30;;;16.30;1.00;;;;;;5027992;28;20740;-83
2023/08/04 05:56:42;;;;;;;22.37;9.43;;;16.40;1.00;;;;;;5025017;28;20304;-83
2023/08/04 05:59:08;;;;;;;22.40;8.80;;;16.40;1.00;;;;;;5026236;28;20264;-83
2023/08/04 06:01:33;;;;;;;18.30;7.60;;;16.40;1.00;;;;;;5022695;28;20184;-85
2023/08/04 06:03:59;;;;;;;20.67;8.23;;;16.50;1.00;;;;;;5025754;28;20184;-84
2023/08/04 06:06:25;;;;;;;18.83;8.53;;;16.50;1.00;;;;;;5026504;28;20194;-84
2023/08/04 06:08:51;;;;;;;22.40;9.07;;;16.60;1.00;;;;;;5025862;28;20210;-83
2023/08/04 06:11:16;;;;;;;11.53;7.73;;;16.70;99.90;;;;;;5027736;28;20431;-84
2023/08/04 06:13:42;;;;;;;14.13;8.33;;;16.70;99.90;;;;;;5026618;28;20187;-84
2023/08/04 06:16:07;;;;;;;15.23;8.27;;;16.80;99.90;;;;;;5024571;28;20231;-85
2023/08/04 06:18:33;;;;;;;16.23;8.70;;;16.80;99.90;;;;;;5020083;28;20675;-84
2023/08/04 06:20:58;;;;;;;13.57;9.03;;;16.90;99.90;;;;;;5019787;28;20266;-84
2023/08/04 06:23:24;;;;;;;17.93;8.70;;;16.90;99.90;;;;;;5028521;28;21479;-84
2023/08/04 06:25:50;;;;;;;21.10;8.03;;;17.00;99.90;;;;;;5024887;28;20683;-82
2023/08/04 06:28:15;;;;;;;15.90;8.83;;;17.10;99.90;;;;;;5024336;28;20221;-84
2023/08/04 06:30:41;;;;;;;13.73;8.67;;;17.10;99.90;;;;;;5027442;28;20677;-84
2023/08/04 06:33:07;;;;;;;12.83;8.43;;;17.20;30.00;;;;;;5028327;28;20181;-84
2023/08/04 06:35:32;;;;;;;18.93;8.10;;;17.30;1.00;;;;;;5022395;28;20221;-84
2023/08/04 06:37:58;;;;;;;13.20;7.40;;;17.40;1.00;;;;;;5023654;28;20205;-84
2023/08/04 06:40:23;;;;;;;15.60;8.77;;;17.50;1.00;;;;;;5019953;28;20209;-84
2023/08/04 06:42:49;;;;;;;17.03;8.60;;;17.50;1.00;;;;;;5015921;28;20198;-84
2023/08/04 06:45:15;;;;;;;14.17;8.73;;;17.60;1.00;;;;;;5019888;28;20190;-84
2023/08/04 06:47:40;;;;;;;22.20;8.97;;;17.70;99.90;;;;;;5019767;28;20695;-84
2023/08/04 06:50:07;;;;;;;21.93;8.93;;;17.70;99.90;;;;;;5022111;28;20208;-84
2023/08/04 06:52:33;;;;;;;13.50;8.33;;;17.80;99.90;;;;;;5015225;28;20205;-85
2023/08/04 06:54:59;;;;;;;22.33;7.97;;;17.90;99.90;;;;;;5020813;28;20814;-85
2023/08/04 06:57:24;;;;;;;18.83;9.40;;;18.00;32.30;;;;;;5017103;28;20212;-84
2023/08/04 06:59:50;;;;;;;13.67;8.17;;;18.10;1.00;;;;;;5018312;28;20466;-84
2023/08/04 07:02:16;;;;;;;15.90;8.67;;;18.10;1.00;;;;;;5016507;28;20339;-84
2023/08/04 07:04:41;;;;;;;14.63;7.90;;;18.20;1.00;;;;;;5020014;28;20186;-84
2023/08/04 07:07:07;;;;;;;12.60;7.57;;;18.20;1.00;;;;;;5017176;28;20448;-85
2023/08/04 07:09:32;;;;;;;14.53;8.43;;;18.30;1.00;;;;;;5023025;28;20190;-84
2023/08/04 07:11:58;;;;;;;15.20;8.90;;;18.30;99.90;;;;;;5012717;28;20197;-83
2023/08/04 07:14:23;;;;;;;15.97;9.17;;;18.40;99.90;;;;;;5016277;28;20946;-84
2023/08/04 07:16:49;;;;;;;13.50;7.80;;;18.50;1.00;;;;;;5010543;28;20247;-84
2023/08/04 07:19:15;;;;;;;14.80;7.63;;;18.60;1.00;;;;;;5013019;28;20298;-84
2023/08/04 07:21:40;;;;;;;16.87;7.80;;;18.60;1.00;;;;;;5014752;28;20198;-85
2023/08/04 07:24:07;;;;;;;17.33;8.23;;;18.70;1.00;;;;;;5021958;28;20188;-84
2023/08/04 07:26:34;;;;;;;20.57;8.03;;;18.80;65.40;;;;;;5024580;28;20185;-84
2023/08/04 07:29:00;;;;;;;19.40;8.83;;;18.90;1.00;;;;;;5022303;28;20485;-85
2023/08/04 07:31:25;;;;;;;13.13;7.03;;;19.10;49.90;;;;;;5026026;28;20945;-84
2023/08/04 07:33:51;;;;;;;20.57;9.17;;;19.20;1.00;;;;;;5024054;28;20189;-84
2023/08/04 07:36:17;;;;;;;17.83;8.30;;;19.30;99.90;;;;;;5017464;28;20260;-84
2023/08/04 07:38:42;;;;;;;15.63;7.03;;;19.40;47.60;;;;;;5015920;28;20206;-84
2023/08/04 07:41:08;;;;;;;15.80;7.07;;;19.50;1.00;;;;;;5029775;28;20183;-84
2023/08/04 07:43:33;;;;;;;12.30;7.30;;;19.60;99.90;;;;;;5028561;28;20919;-84
2023/08/04 07:45:59;;;;;;;18.23;8.27;;;19.80;99.90;;;;;;5019013;28;20183;-84
2023/08/04 07:48:24;;;;;;;14.73;7.77;;;20.00;99.90;;;;;;5031765;28;20206;-83
2023/08/04 07:50:51;;;;;;;13.07;7.03;;;20.20;1.00;;;;;;5022148;28;20189;-84
2023/08/04 07:53:17;;;;;;;14.33;7.23;;;20.40;1.00;;;;;;5023798;28;20625;-84
2023/08/04 07:55:56;;;;;;;13.10;6.47;;;20.50;99.90;;;;;;5024261;28;20568;-84
2023/08/04 07:58:22;;;;;;;13.53;6.57;;;20.70;99.90;;;;;;5009029;28;20461;-85
2023/08/04 08:00:47;;;;;;;16.40;7.03;;;21.10;99.90;;;;;;5022827;28;20521;-85
2023/08/04 08:03:13;;;;;;;9.20;6.10;;;21.40;1.00;;;;;;5024782;28;20251;-85
2023/08/04 08:05:39;;;;;;;16.80;6.70;;;21.70;1.00;;;;;;5039605;28;20185;-85
2023/08/04 08:08:04;;;;;;;17.03;5.83;;;21.90;1.00;;;;;;5018541;28;20204;-85
2023/08/04 08:10:30;;;;;;;8.97;5.60;;;22.20;1.00;;;;;;5020474;28;20213;-85
2023/08/04 08:12:56;;;;;;;10.97;6.23;;;22.30;1.00;;;;;;5024954;28;20575;-85
2023/08/04 08:15:21;;;;;;;10.00;4.80;;;22.40;1.00;;;;;;5020671;28;20486;-85
2023/08/04 08:17:47;;;;;;;11.50;4.90;;;22.60;1.00;;;;;;5027280;28;20219;-84
2023/08/04 08:20:12;;;;;;;9.67;5.77;;;22.80;1.00;;;;;;5026359;28;20213;-84
2023/08/04 08:22:38;;;;;;;12.07;5.50;;;23.00;1.00;;;;;;5021913;28;20276;-84
2023/08/04 08:25:06;;;;;;;11.33;5.70;;;23.30;99.90;;;;;;5023343;28;20557;-84
2023/08/04 08:27:32;;;;;;;11.90;5.70;;;23.20;99.90;;;;;;5022511;28;20625;-85
2023/08/04 08:29:57;;;;;;;14.60;6.30;;;23.20;99.90;;;;;;5030781;28;20491;-84
2023/08/04 08:32:23;;;;;;;15.10;5.67;;;23.00;99.90;;;;;;5027248;28;20268;-84
2023/08/04 08:34:49;;;;;;;14.97;6.63;;;22.90;99.90;;;;;;5028068;28;20277;-84
2023/08/04 08:37:15;;;;;;;11.70;6.60;;;23.10;99.90;;;;;;5025826;28;20235;-84
2023/08/04 08:39:43;;;;;;;11.17;7.07;;;23.40;99.90;;;;;;5018388;28;20471;-84
2023/08/04 08:42:08;;;;;;;16.00;6.67;;;23.50;99.90;;;;;;5023294;28;20185;-84
2023/08/04 08:44:34;;;;;;;15.23;7.60;;;23.60;99.90;;;;;;5024150;28;20520;-85
2023/08/04 08:47:00;;;;;;;16.63;6.53;;;23.80;99.90;;;;;;5020871;28;20277;-84
2023/08/04 08:49:38;;;;;;;10.40;6.37;;;23.90;99.90;;;;;;5027104;28;20262;-84
2023/08/04 08:52:07;;;;;;;14.30;6.70;;;24.10;99.90;;;;;;5024911;28;20183;-85
2023/08/04 08:54:34;;;;;;;8.70;6.23;;;25.00;99.90;;;;;;5021231;28;20447;-85
2023/08/04 08:57:00;;;;;;;8.17;5.70;;;26.20;99.90;;;;;;5018440;28;20452;-84
2023/08/04 08:59:26;;;;;;;9.50;5.73;;;28.50;99.90;;;;;;5026341;28;20476;-85
2023/08/04 09:01:52;;;;;;;10.53;5.90;;;29.30;99.90;;;;;;5023985;28;20233;-85
2023/08/04 09:04:18;;;;;;;9.57;5.70;;;28.60;99.90;;;;;;5016255;28;20521;-85
2023/08/04 09:06:44;;;;;;;6.70;4.97;;;28.40;99.90;;;;;;5024087;28;20966;-84
2023/08/04 09:09:10;;;;;;;6.07;5.10;;;28.80;99.90;;;;;;5020600;28;20459;-85
2023/08/04 09:11:35;;;;;;;7.97;4.33;;;29.60;99.90;;;;;;5013782;28;20187;-85
2023/08/04 09:14:02;;;;;;;12.77;6.00;;;31.90;99.90;;;;;;5015389;28;20193;-86
2023/08/04 09:16:36;;;;;;;7.00;4.10;;;34.30;99.90;;;;;;5017614;28;20186;-83
2023/08/04 09:19:04;;;;;;;10.00;4.83;;;37.30;99.90;;;;;;5033315;28;20443;-83
2023/08/04 09:21:30;;;;;;;7.43;4.30;;;37.70;99.90;;;;;;5032450;28;20868;-83
2023/08/04 09:23:55;;;;;;;6.17;3.80;;;36.90;99.90;;;;;;5022305;28;20548;-83
2023/08/04 09:26:21;;;;;;;4.80;3.27;;;38.40;99.90;;;;;;5037589;28;20213;-83
2023/08/04 09:29:05;;;;;;;4.73;3.17;;;36.90;99.90;;;;;;5018596;28;20202;-84
2023/08/04 09:31:36;;;;;;;3.30;2.97;;;39.60;99.90;;;;;;5026144;28;20244;-84
2023/08/04 09:34:04;;;;;;;6.37;3.33;;;41.20;99.90;;;;;;5018254;28;20949;-83
2023/08/04 09:36:30;;;;;;;6.20;3.80;;;38.80;99.90;;;;;;5024674;28;20433;-83
2023/08/04 09:39:02;;;;;;;5.67;3.87;;;39.00;99.90;;;;;;5015405;28;20845;-83
2023/08/04 09:41:29;;;;;;;7.80;3.10;;;41.00;99.90;;;;;;5023094;28;20433;-83
2023/08/04 09:43:55;;;;;;;6.50;3.43;;;42.20;99.90;;;;;;5020608;28;20433;-83
2023/08/04 09:46:21;;;;;;;5.80;3.20;;;40.80;99.90;;;;;;5019427;28;20436;-84
2023/08/04 09:48:47;;;;;;;4.33;3.00;;;41.90;99.90;;;;;;5022901;28;20464;-83
2023/08/04 09:51:20;;;;;;;5.10;3.23;;;42.80;99.90;;;;;;5019648;28;20182;-83
2023/08/04 09:53:49;;;;;;;5.00;3.47;;;41.30;99.90;;;;;;5017102;28;20267;-83
2023/08/04 09:56:19;;;;;;;6.53;3.60;;;40.00;99.90;;;;;;5023603;28;20438;-83
2023/08/04 09:58:46;;;;;;;5.57;3.67;;;38.80;99.90;;;;;;5016774;28;20456;-85
2023/08/04 10:01:13;;;;;;;4.43;3.40;;;37.00;99.90;;;;;;5019837;28;20635;-85
2023/08/04 10:03:45;;;;;;;6.47;3.07;;;35.70;99.90;;;;;;5022117;28;20463;-85
2023/08/04 10:06:11;;;;;;;4.73;3.30;;;34.30;99.90;;;;;;5017565;28;20445;-85
2023/08/04 10:08:55;;;;;;;4.27;3.13;;;33.00;99.90;;;;;;5022564;28;20475;-84
2023/08/04 10:11:22;;;;;;;4.03;2.77;;;31.60;99.90;;;;;;5020801;28;20456;-84
2023/08/04 10:13:53;;;;;;;3.20;2.73;;;30.60;99.90;;;;;;5025307;28;20460;-85
2023/08/04 10:16:23;;;;;;;3.70;2.90;;;29.60;99.90;;;;;;5024954;28;21108;-84
2023/08/04 10:18:50;;;;;;;5.27;2.70;;;29.00;99.90;;;;;;5018758;28;20552;-85
2023/08/04 10:21:22;;;;;;;6.10;3.47;;;28.50;99.90;;;;;;5016128;28;20564;-84
2023/08/04 10:23:48;;;;;;;4.83;3.30;;;28.00;99.90;;;;;;5017983;28;21065;-86
2023/08/04 10:26:13;;;;;;;10.77;3.43;;;27.60;99.90;;;;;;5017432;28;21073;-84
2023/08/04 10:29:11;;;;;;;7.97;3.23;;;27.20;99.90;;;;;;5021131;28;20461;-85
2023/08/04 10:31:51;;;;;;;6.50;3.03;;;26.70;99.90;;;;;;5014317;28;20198;-84
2023/08/04 10:34:37;;;;;;;6.00;3.00;;;26.30;99.90;;;;;;5025383;28;20444;-85
2023/08/04 10:37:29;;;;;;;8.47;4.20;;;26.20;99.90;;;;;;5015958;28;20779;-84
2023/08/04 10:39:58;;;;;;;9.60;2.80;;;27.00;99.90;;;;;;5010861;28;20469;-85
2023/08/04 10:42:26;;;;;;;6.17;3.20;;;28.20;99.90;;;;;;5025999;28;20527;-85
2023/08/04 10:45:06;;;;;;;7.73;2.20;;;28.80;99.90;;;;;;5016381;28;20439;-85
2023/08/04 10:47:45;;;;;;;5.20;2.40;;;30.40;99.90;;;;;;5021988;28;20496;-85
2023/08/04 10:50:17;;;;;;;4.27;2.30;;;30.40;99.90;;;;;;5019387;28;20786;-85
2023/08/04 10:52:44;;;;;;;5.87;2.27;;;30.40;99.90;;;;;;5015643;28;20444;-86
2023/08/04 10:55:11;;;;;;;9.83;3.00;;;32.10;99.90;;;;;;5009650;28;20441;-85
2023/08/04 10:57:38;;;;;;;3.20;2.03;;;33.70;99.90;;;;;;5020489;28;20492;-85
2023/08/04 11:00:09;;;;;;;3.27;1.70;;;33.20;99.90;;;;;;5015711;28;20472;-85
2023/08/04 11:02:35;;;;;;;3.33;1.87;;;32.40;99.90;;;;;;5010927;28;20441;-85
2023/08/04 11:05:03;;;;;;;4.23;1.87;;;31.60;99.90;;;;;;5022317;28;20992;-86
2023/08/04 11:07:28;;;;;;;3.20;2.07;;;33.40;99.90;;;;;;5030755;28;21226;-85
2023/08/04 11:09:54;;;;;;;3.30;1.47;;;34.80;99.90;;;;;;5026750;28;20512;-85
2023/08/04 11:12:20;;;;;;;2.03;1.57;;;35.90;99.90;;;;;;5024241;28;20274;-85
2023/08/04 11:14:47;;;;;;;6.00;1.90;;;36.80;99.90;;;;;;5025486;28;20307;-86
2023/08/04 11:17:20;;;;;;;2.37;1.40;;;36.10;99.90;;;;;;5021759;28;20559;-86
2023/08/04 11:19:48;;;;;;;4.77;2.10;;;34.90;99.90;;;;;;5029677;28;20464;-85
2023/08/04 11:22:20;;;;;;;2.87;1.60;;;34.70;99.90;;;;;;5017352;28;20425;-85
2023/08/04 11:24:45;;;;;;;2.57;1.73;;;35.40;99.90;;;;;;5033673;28;20496;-85
2023/08/04 11:27:15;;;;;;;4.60;2.20;;;36.40;99.90;;;;;;5025171;28;20453;-84
2023/08/04 11:29:41;;;;;;;3.03;2.10;;;37.10;99.90;;;;;;5016725;28;20660;-84
2023/08/04 11:32:20;;;;;;;3.13;1.87;;;37.50;99.90;;;;;;5028272;28;20445;-83
2023/08/04 11:34:46;;;;;;;5.10;1.73;;;37.30;99.90;;;;;;5026489;28;20358;-83
2023/08/04 11:37:12;;;;;;;3.20;2.07;;;37.90;99.90;;;;;;5022419;28;20890;-83
2023/08/04 11:39:40;;;;;;;4.37;2.00;;;38.60;99.90;;;;;;5027907;28;20627;-83
2023/08/04 11:42:12;;;;;;;4.67;2.37;;;38.50;99.90;;;;;;5019986;28;20182;-83
2023/08/04 11:44:42;;;;;;;3.40;1.83;;;37.70;99.90;;;;;;5021447;28;20470;-83
2023/08/04 11:47:10;;;;;;;5.00;2.50;;;36.80;99.90;;;;;;5016511;28;20933;-83
2023/08/04 11:49:36;;;;;;;3.70;1.90;;;35.70;99.90;;;;;;5016840;28;20505;-83
2023/08/04 11:52:10;;;;;;;2.97;2.20;;;34.90;99.90;;;;;;5020764;28;20452;-83
2023/08/04 11:54:49;;;;;;;3.83;2.10;;;34.40;99.90;;;;;;5013997;28;20447;-82
2023/08/04 11:57:17;;;;;;;3.07;2.30;;;34.10;99.90;;;;;;5016261;28;20451;-82
2023/08/04 11:59:47;;;;;;;2.93;1.57;;;33.70;99.90;;;;;;5029384;28;20464;-82
2023/08/04 12:02:13;;;;;;;2.57;1.90;;;33.60;99.90;;;;;;5023023;28;20433;-82
2023/08/04 12:04:38;;;;;;;1.70;1.57;;;32.90;99.90;;;;;;5025193;28;20452;-82
2023/08/04 12:07:05;;;;;;;3.43;1.70;;;32.70;99.90;;;;;;5026731;28;20194;-82
2023/08/04 12:09:32;;;;;;;1.50;1.30;;;32.70;99.90;;;;;;5027540;28;20187;-82
2023/08/04 12:11:58;;;;;;;2.93;1.70;;;33.00;99.90;;;;;;5023811;28;20453;-82
2023/08/04 12:14:23;;;;;;;2.00;1.73;;;33.20;99.90;;;;;;5016973;28;20928;-82
2023/08/04 12:16:52;;;;;;;6.33;1.80;;;33.20;99.90;;;;;;5021862;28;21001;-82
2023/08/04 12:19:18;;;;;;;3.77;1.63;;;33.40;99.90;;;;;;5027337;28;20206;-82
2023/08/04 12:21:44;;;;;;;2.50;1.73;;;33.60;99.90;;;;;;5017621;28;20442;-83
2023/08/04 12:24:11;;;;;;;2.60;1.50;;;34.10;99.90;;;;;;5023117;28;20486;-82
2023/08/04 12:26:36;;;;;;;2.83;1.40;;;34.60;99.90;;;;;;5020425;28;20186;-83
2023/08/04 12:29:02;;;;;;;3.00;1.30;;;35.20;99.90;;;;;;5016462;28;20457;-83
2023/08/04 12:31:27;;;;;;;1.93;1.67;;;34.90;99.90;;;;;;5025975;28;20214;-82
2023/08/04 12:33:53;;;;;;;5.00;1.90;;;34.30;99.90;;;;;;5027110;28;20186;-82
2023/08/04 12:36:18;;;;;;;5.67;1.67;;;34.10;99.90;;;;;;5021962;28;20781;-82
2023/08/04 12:38:44;;;;;;;2.13;1.30;;;33.60;99.90;;;;;;5028304;28;20193;-82
2023/08/04 12:41:10;;;;;;;4.30;2.03;;;33.40;99.90;;;;;;5030420;28;20301;-83
2023/08/04 12:43:35;;;;;;;2.60;1.30;;;33.40;99.90;;;;;;5029595;28;20175;-82